Time;durP1;ratioP1;P1;durP2;ratioP2;P2;SDS_P1;SDS_P2;PMS_P1;PMS_P2;Temp;Humidity;BMP_temperature;BMP_pressure;BME280_temperature;BME280_humidity;BME280_pressure;Samples;Min_cycle;Max_cycle;Signal;HPM_P1;HPM_P2
2021/04/05 00:02:33;;;;;;;4.60;3.30;;;4.00;57.50;;;;;;4883913;29;20678;-92
2021/04/05 00:04:59;;;;;;;3.87;3.13;;;4.00;58.40;;;;;;4897714;29;20671;-92
2021/04/05 00:07:26;;;;;;;5.10;4.03;;;4.00;57.50;;;;;;4889186;29;20243;-91
2021/04/05 00:09:52;;;;;;;6.53;3.73;;;4.00;57.70;;;;;;4892043;29;20294;-91
2021/04/05 00:15:30;;;;;;;7.63;3.67;;;4.10;56.90;;;;;;4881311;29;20290;-92
2021/04/05 00:23:44;;;;;;;7.37;3.57;;;4.20;55.90;;;;;;4891970;29;20565;-92
2021/04/05 00:26:31;;;;;;;7.73;3.23;;;4.10;55.50;;;;;;4886306;29;20235;-92
2021/04/05 00:34:19;;;;;;;4.77;2.93;;;4.10;56.70;;;;;;4886255;29;20211;-92
2021/04/05 00:36:46;;;;;;;3.73;2.90;;;4.00;57.30;;;;;;4892934;29;20241;-93
2021/04/05 00:39:12;;;;;;;7.83;3.03;;;4.10;56.70;;;;;;4891426;29;20241;-93
2021/04/05 00:44:21;;;;;;;3.80;2.80;;;4.10;55.70;;;;;;4897042;29;20671;-92
2021/04/05 00:46:47;;;;;;;4.27;3.00;;;4.20;56.50;;;;;;4893959;29;20239;-92
2021/04/05 00:49:14;;;;;;;4.10;2.90;;;4.20;55.40;;;;;;4897420;29;20214;-92
2021/04/05 00:57:02;;;;;;;6.90;2.87;;;4.10;55.30;;;;;;4893462;29;20412;-92
2021/04/05 01:02:11;;;;;;;11.63;4.63;;;4.00;58.20;;;;;;4880520;29;20290;-92
2021/04/05 01:04:37;;;;;;;6.37;4.67;;;4.30;57.60;;;;;;4888945;29;20691;-92
2021/04/05 01:09:45;;;;;;;8.00;5.77;;;4.60;55.30;;;;;;4890085;29;20242;-92
2021/04/05 01:12:12;;;;;;;4.70;3.00;;;4.70;56.10;;;;;;4889829;29;20239;-92
2021/04/05 01:14:41;;;;;;;10.03;4.43;;;4.70;54.50;;;;;;4893457;29;20210;-92
2021/04/05 01:17:27;;;;;;;4.87;3.37;;;4.60;56.90;;;;;;4886035;29;20731;-92
2021/04/05 01:19:54;;;;;;;4.73;2.90;;;4.90;53.80;;;;;;4900612;29;20289;-92
2021/04/05 01:30:52;;;;;;;5.30;3.03;;;4.30;56.20;;;;;;4870733;29;20218;-91
2021/04/05 01:36:46;;;;;;;6.43;4.03;;;4.20;58.60;;;;;;4891953;29;20238;-92
2021/04/05 01:47:16;;;;;;;19.73;8.13;;;4.30;55.30;;;;;;4888402;29;20233;-92
2021/04/05 01:49:43;;;;;;;9.27;5.00;;;4.40;57.80;;;;;;4890136;29;20242;-92
2021/04/05 02:19:48;;;;;;;34.23;12.97;;;4.30;57.80;;;;;;4880780;29;20254;-92
2021/04/05 02:22:14;;;;;;;21.87;8.23;;;4.40;57.20;;;;;;4888330;29;20758;-93
2021/04/05 02:33:06;;;;;;;54.90;19.57;;;4.50;56.70;;;;;;4871734;29;20215;-92
2021/04/05 02:50:07;;;;;;;4.17;2.70;;;4.00;59.60;;;;;;4762598;30;20215;-92
2021/04/05 03:04:26;;;;;;;18.77;6.80;;;3.80;60.60;;;;;;4855289;29;20247;-92
2021/04/05 03:06:54;;;;;;;39.67;13.67;;;3.90;58.50;;;;;;4885527;29;20699;-92
2021/04/05 03:09:21;;;;;;;40.47;13.90;;;3.90;59.70;;;;;;4891620;29;20330;-92
2021/04/05 03:28:19;;;;;;;6.30;3.80;;;3.80;63.20;;;;;;4894025;29;20204;-92
2021/04/05 04:28:23;;;;;;;3.17;2.27;;;3.70;58.80;;;;;;4896263;29;20214;-91
2021/04/05 04:33:36;;;;;;;4.00;2.77;;;3.50;59.60;;;;;;4886279;29;20762;-93
2021/04/05 04:50:00;;;;;;;4.03;2.40;;;3.70;58.60;;;;;;4881511;29;20275;-92
2021/04/05 05:09:07;;;;;;;4.03;2.40;;;4.10;57.10;;;;;;4874921;29;20255;-93
2021/04/05 05:55:58;;;;;;;6.27;2.70;;;6.00;49.70;;;;;;4845272;29;20222;-94
2021/04/05 06:48:57;;;;;;;5.55;2.65;;;14.20;27.20;;;;;;4890575;29;20246;-96
2021/04/05 09:21:10;;;;;;;5.78;2.50;;;19.60;17.50;;;;;;4913225;29;20677;-93
2021/04/05 09:24:25;;;;;;;5.55;3.38;;;19.00;17.60;;;;;;4844720;29;20229;-94
2021/04/05 09:27:32;;;;;;;5.95;2.40;;;18.80;17.70;;;;;;4883821;29;20238;-94
2021/04/05 09:33:57;;;;;;;6.97;2.30;;;18.00;19.00;;;;;;4925306;29;20311;-94
2021/04/05 09:40:56;;;;;;;13.88;2.45;;;17.10;19.00;;;;;;4915370;29;20233;-95
2021/04/05 16:34:18;;;;;;;7.40;3.35;;;11.50;30.30;;;;;;6023155;23;20316;-95
2021/04/05 16:49:18;;;;;;;13.18;3.60;;;10.70;37.90;;;;;;4849432;29;20216;-92
2021/04/05 17:45:07;;;;;;;14.50;8.10;;;6.90;88.80;;;;;;4813541;29;20347;-92
2021/04/05 17:48:09;;;;;;;14.33;8.20;;;6.80;90.20;;;;;;4835730;29;20248;-91
2021/04/05 17:51:04;;;;;;;11.53;7.00;;;6.70;90.90;;;;;;4854625;29;20205;-92
2021/04/05 18:12:00;;;;;;;2.07;1.27;;;4.40;92.60;;;;;;4867000;29;20231;-89
2021/04/05 18:14:50;;;;;;;1.63;1.23;;;3.60;92.70;;;;;;4869262;29;20210;-89
2021/04/05 18:18:08;;;;;;;2.10;1.30;;;3.20;94.60;;;;;;4876521;29;20242;-87
2021/04/05 18:20:52;;;;;;;1.47;1.30;;;2.80;95.00;;;;;;4819645;29;20258;-88
2021/04/05 18:23:55;;;;;;;2.17;1.60;;;2.50;95.60;;;;;;4877241;29;20563;-86
2021/04/05 18:26:38;;;;;;;1.73;1.53;;;2.20;96.20;;;;;;4841572;29;20296;-88
2021/04/05 18:29:23;;;;;;;3.23;1.40;;;2.00;96.80;;;;;;4870052;29;20204;-88
2021/04/05 18:31:59;;;;;;;1.70;1.60;;;2.00;98.10;;;;;;4869853;29;20684;-86
2021/04/05 18:34:36;;;;;;;2.17;1.60;;;2.00;98.60;;;;;;4867539;29;20216;-86
2021/04/05 18:37:11;;;;;;;1.80;1.53;;;2.00;99.00;;;;;;4868562;29;20228;-86
2021/04/05 18:39:42;;;;;;;1.80;1.70;;;2.00;98.20;;;;;;4873256;29;20330;-86
2021/04/05 18:42:10;;;;;;;2.00;1.53;;;1.90;98.20;;;;;;4872013;29;20258;-86
2021/04/05 18:44:45;;;;;;;1.80;1.70;;;1.90;99.50;;;;;;4861641;29;20204;-87
2021/04/05 18:47:21;;;;;;;1.87;1.77;;;1.90;99.20;;;;;;4872252;29;20286;-87
2021/04/05 18:49:57;;;;;;;1.63;1.53;;;1.90;98.80;;;;;;4869287;29;20211;-86
2021/04/05 18:52:37;;;;;;;3.53;2.50;;;1.90;99.60;;;;;;4870361;29;20235;-87
2021/04/05 18:55:06;;;;;;;2.93;2.53;;;2.00;99.00;;;;;;4870584;29;20705;-87
2021/04/05 18:57:38;;;;;;;3.87;2.23;;;2.00;98.80;;;;;;4889296;29;20238;-88
2021/04/05 19:00:09;;;;;;;1.77;1.63;;;2.10;98.90;;;;;;4890936;29;20241;-87
2021/04/05 19:02:40;;;;;;;2.30;2.00;;;2.20;98.90;;;;;;4865685;29;20232;-87
2021/04/05 19:05:13;;;;;;;1.90;1.70;;;2.30;99.40;;;;;;4871726;29;20270;-86
2021/04/05 19:07:45;;;;;;;3.60;1.90;;;2.20;97.80;;;;;;4871906;29;20239;-86
2021/04/05 19:10:18;;;;;;;2.10;1.90;;;2.20;97.60;;;;;;4874285;29;20611;-87
2021/04/05 19:13:10;;;;;;;3.60;2.50;;;2.20;98.60;;;;;;4869150;29;20246;-86
2021/04/05 19:15:44;;;;;;;2.73;1.90;;;2.20;98.50;;;;;;4876790;29;20291;-87
2021/04/05 19:18:54;;;;;;;4.37;2.00;;;2.10;98.30;;;;;;4880383;29;20233;-87
2021/04/05 19:21:34;;;;;;;1.97;1.80;;;2.10;98.50;;;;;;4864676;29;20320;-87
2021/04/05 19:24:39;;;;;;;3.53;1.97;;;2.00;98.40;;;;;;4873901;29;20208;-86
2021/04/05 19:27:37;;;;;;;2.67;1.87;;;2.00;98.60;;;;;;4828539;29;20633;-87
2021/04/05 19:30:47;;;;;;;2.10;1.90;;;2.00;98.70;;;;;;4873472;29;20227;-87
2021/04/05 19:33:25;;;;;;;2.43;2.00;;;1.80;98.70;;;;;;4872342;29;20230;-87
2021/04/05 19:36:05;;;;;;;2.30;2.10;;;1.80;99.00;;;;;;4878451;29;20204;-87
2021/04/05 19:39:01;;;;;;;1.40;1.30;;;1.60;99.50;;;;;;4875333;29;20240;-89
2021/04/05 19:42:08;;;;;;;2.77;2.10;;;1.40;98.60;;;;;;4876658;29;20267;-87
2021/04/05 19:45:09;;;;;;;2.87;2.33;;;1.30;98.80;;;;;;4874106;29;20207;-88
2021/04/05 19:48:25;;;;;;;2.30;2.00;;;1.10;99.30;;;;;;4876598;29;20237;-87
2021/04/05 19:51:19;;;;;;;2.80;1.90;;;1.20;99.50;;;;;;4875111;29;20577;-87
2021/04/05 19:54:22;;;;;;;3.03;2.00;;;1.10;99.40;;;;;;4862869;29;20262;-87
2021/04/05 19:57:12;;;;;;;3.33;2.13;;;1.10;99.40;;;;;;4876625;29;20706;-86
2021/04/05 19:59:57;;;;;;;2.20;2.00;;;1.10;99.40;;;;;;4872566;29;20245;-87
2021/04/05 20:02:42;;;;;;;2.40;2.20;;;1.00;99.40;;;;;;4877341;29;20265;-87
2021/04/05 20:05:10;;;;;;;2.77;2.13;;;1.00;99.80;;;;;;4874285;29;20247;-86
2021/04/05 20:07:43;;;;;;;2.93;2.13;;;1.00;99.40;;;;;;4873795;29;20239;-87
2021/04/05 20:10:20;;;;;;;2.93;2.07;;;1.00;99.40;;;;;;4870905;29;20213;-88
2021/04/05 20:13:07;;;;;;;3.27;2.20;;;1.00;99.40;;;;;;4871494;29;20241;-86
2021/04/05 20:15:40;;;;;;;2.67;2.30;;;1.00;99.20;;;;;;4869059;29;20211;-86
2021/04/05 20:18:14;;;;;;;2.17;1.97;;;1.00;98.60;;;;;;4871280;29;20317;-85
2021/04/05 20:20:47;;;;;;;2.10;1.90;;;1.00;98.40;;;;;;4883242;29;20261;-86
2021/04/05 20:23:22;;;;;;;2.20;2.00;;;1.00;97.80;;;;;;4881230;29;20266;-86
2021/04/05 20:25:51;;;;;;;2.13;1.93;;;0.90;98.30;;;;;;4882612;29;20210;-85
2021/04/05 20:28:25;;;;;;;2.50;2.10;;;0.90;98.10;;;;;;4880545;29;20241;-86
2021/04/05 20:31:02;;;;;;;2.57;2.13;;;0.90;99.10;;;;;;4882505;29;20569;-84
2021/04/05 20:33:40;;;;;;;1.43;1.33;;;1.00;99.10;;;;;;4884695;29;20228;-87
2021/04/05 20:36:19;;;;;;;1.80;1.50;;;0.70;97.60;;;;;;4882768;29;20922;-88
2021/04/05 20:38:52;;;;;;;2.07;1.87;;;0.60;98.40;;;;;;4879826;29;20230;-88
2021/04/05 20:41:39;;;;;;;2.07;1.70;;;0.50;98.10;;;;;;4876177;29;20229;-89
2021/04/05 20:44:12;;;;;;;2.83;1.40;;;0.30;98.90;;;;;;4881641;29;20302;-90
2021/04/05 20:46:47;;;;;;;2.13;1.37;;;0.30;99.20;;;;;;4883708;29;20242;-90
2021/04/05 20:49:23;;;;;;;3.53;1.30;;;0.10;97.10;;;;;;4882464;29;20209;-89
2021/04/05 20:51:54;;;;;;;2.43;1.10;;;0.00;97.60;;;;;;4874588;29;20231;-89
2021/04/05 20:54:28;;;;;;;1.30;1.20;;;-0.10;96.90;;;;;;4868018;29;20201;-90
2021/04/05 20:57:02;;;;;;;2.27;1.53;;;-0.20;96.60;;;;;;4877273;29;20238;-88
2021/04/05 20:59:32;;;;;;;2.57;1.40;;;-0.10;97.10;;;;;;4873683;29;20302;-87
2021/04/05 21:02:02;;;;;;;5.17;1.27;;;-0.10;96.60;;;;;;4870370;29;20719;-88
2021/04/05 21:04:36;;;;;;;1.77;1.17;;;-0.10;95.80;;;;;;4880236;29;20297;-88
2021/04/05 21:07:10;;;;;;;5.60;1.40;;;0.00;96.20;;;;;;4868508;29;20228;-88
2021/04/05 21:09:39;;;;;;;2.83;1.63;;;0.00;94.50;;;;;;4873678;29;20218;-88
2021/04/05 21:12:14;;;;;;;1.37;1.27;;;-0.10;93.40;;;;;;4871246;29;20227;-88
2021/04/05 21:14:48;;;;;;;2.50;1.40;;;-0.20;93.40;;;;;;4875842;29;20264;-88
2021/04/05 21:17:23;;;;;;;5.77;1.40;;;-0.10;93.70;;;;;;4891271;29;20272;-88
2021/04/05 21:19:57;;;;;;;1.97;1.30;;;-0.10;94.00;;;;;;4866596;29;20740;-87
2021/04/05 21:22:29;;;;;;;1.83;1.40;;;0.00;94.00;;;;;;4867232;29;20329;-88
2021/04/05 21:25:02;;;;;;;1.47;1.30;;;0.00;93.10;;;;;;4867222;29;20214;-89
2021/04/05 21:27:37;;;;;;;3.23;1.30;;;0.00;93.40;;;;;;4873173;29;20233;-90
2021/04/05 21:30:07;;;;;;;2.67;1.10;;;0.10;93.70;;;;;;4866255;29;20203;-89
2021/04/05 21:32:37;;;;;;;1.83;1.30;;;0.00;93.50;;;;;;4872771;29;20241;-89
2021/04/05 21:35:07;;;;;;;2.93;1.53;;;0.00;93.10;;;;;;4864272;29;20206;-88
2021/04/05 21:37:38;;;;;;;3.43;1.37;;;0.00;93.00;;;;;;4870868;29;20708;-89
2021/04/05 21:40:08;;;;;;;2.80;1.43;;;0.00;93.40;;;;;;4874078;29;20237;-89
2021/04/05 21:42:42;;;;;;;2.10;1.87;;;0.10;93.50;;;;;;4866887;29;20261;-89
2021/04/05 21:45:16;;;;;;;2.73;1.50;;;0.10;93.30;;;;;;4872186;29;20650;-87
2021/04/05 21:47:46;;;;;;;1.97;1.60;;;0.10;93.20;;;;;;4863203;29;20261;-88
2021/04/05 21:50:15;;;;;;;3.90;1.90;;;0.10;93.20;;;;;;4866785;29;20202;-87
2021/04/05 21:52:45;;;;;;;4.33;1.97;;;0.10;93.40;;;;;;4872165;29;20582;-88
2021/04/05 21:55:18;;;;;;;3.93;1.50;;;0.10;93.10;;;;;;4874305;29;20266;-88
2021/04/05 21:57:51;;;;;;;2.20;1.80;;;0.10;92.90;;;;;;4875943;29;20231;-87
2021/04/05 22:00:19;;;;;;;3.73;1.70;;;0.10;93.10;;;;;;4873578;29;20391;-87
2021/04/05 22:02:49;;;;;;;4.93;1.90;;;0.10;93.20;;;;;;4867567;29;20236;-88
2021/04/05 22:05:25;;;;;;;3.03;2.00;;;0.10;92.80;;;;;;4865204;29;20773;-87
2021/04/05 22:07:57;;;;;;;3.53;1.60;;;0.10;93.20;;;;;;4875312;29;20672;-87
2021/04/05 22:10:29;;;;;;;2.10;1.50;;;0.10;93.20;;;;;;4872223;29;20668;-88
2021/04/05 22:13:04;;;;;;;3.10;2.47;;;0.20;93.10;;;;;;4876190;29;20245;-87
2021/04/05 22:15:36;;;;;;;4.87;1.90;;;0.10;92.80;;;;;;4872625;29;20298;-87
2021/04/05 22:18:14;;;;;;;2.27;1.70;;;0.20;92.80;;;;;;4867226;29;20690;-89
2021/04/05 22:20:48;;;;;;;4.90;1.93;;;0.20;93.10;;;;;;4867013;29;20258;-88
2021/04/05 22:23:20;;;;;;;2.40;1.80;;;0.10;92.70;;;;;;4869070;29;20246;-88
2021/04/05 22:25:48;;;;;;;4.73;1.73;;;0.10;92.50;;;;;;4863287;29;20208;-89
2021/04/05 22:28:36;;;;;;;2.93;1.50;;;0.10;92.30;;;;;;4863321;29;20732;-89
2021/04/05 22:31:08;;;;;;;2.17;1.73;;;0.10;91.50;;;;;;4865968;29;20229;-89
2021/04/05 22:33:34;;;;;;;2.33;1.60;;;0.20;91.40;;;;;;4867574;29;20794;-88
2021/04/05 22:36:06;;;;;;;4.07;1.50;;;0.10;90.60;;;;;;4860662;29;20683;-88
2021/04/05 22:38:33;;;;;;;2.80;1.60;;;0.20;91.50;;;;;;4870747;29;20263;-88
2021/04/05 22:41:01;;;;;;;5.00;1.67;;;0.10;90.40;;;;;;4866226;29;20226;-89
2021/04/05 22:43:32;;;;;;;3.73;1.60;;;0.10;90.90;;;;;;4867697;29;20241;-88
2021/04/05 22:46:09;;;;;;;2.43;1.43;;;0.20;90.70;;;;;;4876034;29;20292;-88
2021/04/05 22:48:36;;;;;;;1.57;1.47;;;0.20;90.60;;;;;;4873160;29;20243;-89
2021/04/05 22:51:13;;;;;;;3.53;1.60;;;0.10;90.40;;;;;;4865398;29;20607;-89
2021/04/05 22:53:58;;;;;;;2.47;1.80;;;0.10;90.80;;;;;;4868907;29;20238;-88
2021/04/05 22:56:38;;;;;;;2.70;1.70;;;0.10;90.90;;;;;;4865729;29;20254;-87
2021/04/05 22:59:11;;;;;;;4.90;1.93;;;0.20;91.30;;;;;;4861663;29;20640;-88
2021/04/05 23:01:38;;;;;;;2.30;1.40;;;0.20;91.10;;;;;;4868324;29;20234;-89
2021/04/05 23:04:06;;;;;;;3.57;1.60;;;0.20;89.70;;;;;;4868749;29;20644;-88
2021/04/05 23:06:36;;;;;;;2.90;1.70;;;0.10;85.90;;;;;;4865047;29;20593;-89
2021/04/05 23:09:06;;;;;;;3.67;1.47;;;0.10;88.00;;;;;;4870188;29;20207;-89
2021/04/05 23:11:39;;;;;;;2.13;1.40;;;0.10;88.50;;;;;;4873497;29;20219;-90
2021/04/05 23:14:08;;;;;;;1.40;1.30;;;0.00;89.00;;;;;;4866047;29;20252;-89
2021/04/05 23:16:42;;;;;;;4.90;1.60;;;0.10;86.60;;;;;;4871982;29;20242;-90
2021/04/05 23:19:12;;;;;;;4.33;1.57;;;0.10;87.50;;;;;;4872766;29;20249;-89
2021/04/05 23:21:43;;;;;;;1.50;1.40;;;0.00;87.90;;;;;;4866739;29;20593;-89
2021/04/05 23:24:21;;;;;;;3.43;1.40;;;0.00;86.00;;;;;;4875361;29;20296;-90
2021/04/05 23:26:56;;;;;;;1.87;1.40;;;-0.10;87.40;;;;;;4871048;29;20235;-90
2021/04/05 23:29:27;;;;;;;3.17;1.70;;;-0.10;86.00;;;;;;4876884;29;20205;-90
2021/04/05 23:31:55;;;;;;;2.60;2.00;;;-0.10;87.10;;;;;;4873239;29;20236;-91
2021/04/05 23:34:32;;;;;;;3.00;1.80;;;-0.10;89.30;;;;;;4900284;29;20194;-90
2021/04/05 23:37:01;;;;;;;2.33;1.70;;;-0.20;89.30;;;;;;4889190;29;20651;-90
2021/04/05 23:39:37;;;;;;;3.77;1.70;;;-0.10;90.00;;;;;;4872780;29;20871;-90
2021/04/05 23:42:12;;;;;;;3.60;1.80;;;-0.20;90.20;;;;;;4866640;29;20241;-90
2021/04/05 23:44:41;;;;;;;4.07;1.90;;;0.00;91.00;;;;;;4872677;29;20560;-91
2021/04/05 23:47:08;;;;;;;4.03;2.03;;;-0.10;91.10;;;;;;4861958;29;20315;-91
2021/04/05 23:49:57;;;;;;;4.70;2.10;;;-0.10;91.30;;;;;;4876573;29;20189;-91
2021/04/05 23:52:31;;;;;;;4.67;1.87;;;-0.10;91.70;;;;;;4875920;29;20285;-89
2021/04/05 23:54:58;;;;;;;4.90;2.00;;;-0.10;91.30;;;;;;4879407;29;20205;-90
2021/04/05 23:57:29;;;;;;;3.47;2.07;;;-0.20;92.00;;;;;;4879483;29;20727;-89
